sensor_id;sensor_type;location;lat;lon;timestamp;temperature;humidity
46890;DHT22;32625;51.080;16.970;2023-07-13T00:01:54;20.70;99.90
46890;DHT22;32625;51.080;16.970;2023-07-13T00:04:23;20.70;99.90
46890;DHT22;32625;51.080;16.970;2023-07-13T00:06:52;20.70;99.90
46890;DHT22;32625;51.080;16.970;2023-07-13T00:09:20;20.70;99.90
46890;DHT22;32625;51.080;16.970;2023-07-13T00:11:54;20.60;99.90
46890;DHT22;32625;51.080;16.970;2023-07-13T00:14:23;20.60;99.90
46890;DHT22;32625;51.080;16.970;2023-07-13T00:16:51;20.60;99.90
46890;DHT22;32625;51.080;16.970;2023-07-13T00:19:18;20.60;99.90
46890;DHT22;32625;51.080;16.970;2023-07-13T00:21:46;20.70;99.90
46890;DHT22;32625;51.080;16.970;2023-07-13T00:24:15;20.70;99.90
46890;DHT22;32625;51.080;16.970;2023-07-13T00:26:49;20.60;99.90
46890;DHT22;32625;51.080;16.970;2023-07-13T00:29:16;20.60;99.90
46890;DHT22;32625;51.080;16.970;2023-07-13T00:31:43;20.60;99.90
46890;DHT22;32625;51.080;16.970;2023-07-13T00:34:11;20.60;99.90
46890;DHT22;32625;51.080;16.970;2023-07-13T00:36:39;20.60;99.90
46890;DHT22;32625;51.080;16.970;2023-07-13T00:39:06;20.60;99.90
46890;DHT22;32625;51.080;16.970;2023-07-13T00:41:33;20.60;99.90
46890;DHT22;32625;51.080;16.970;2023-07-13T00:44:03;20.60;99.90
46890;DHT22;32625;51.080;16.970;2023-07-13T00:46:33;20.70;99.90
46890;DHT22;32625;51.080;16.970;2023-07-13T00:49:05;20.70;99.90
46890;DHT22;32625;51.080;16.970;2023-07-13T00:51:45;20.60;99.90
46890;DHT22;32625;51.080;16.970;2023-07-13T00:54:17;20.60;99.90
46890;DHT22;32625;51.080;16.970;2023-07-13T00:56:47;20.70;99.90
46890;DHT22;32625;51.080;16.970;2023-07-13T00:59:16;20.70;99.90
46890;DHT22;32625;51.080;16.970;2023-07-13T01:01:46;20.60;99.90
46890;DHT22;32625;51.080;16.970;2023-07-13T01:04:13;20.60;99.90
46890;DHT22;32625;51.080;16.970;2023-07-13T01:06:41;20.60;99.90
46890;DHT22;32625;51.080;16.970;2023-07-13T01:09:11;20.50;99.90
46890;DHT22;32625;51.080;16.970;2023-07-13T01:11:40;20.50;99.90
46890;DHT22;32625;51.080;16.970;2023-07-13T01:14:08;20.40;99.90
46890;DHT22;32625;51.080;16.970;2023-07-13T01:16:37;20.30;99.90
46890;DHT22;32625;51.080;16.970;2023-07-13T01:19:22;20.30;99.90
46890;DHT22;32625;51.080;16.970;2023-07-13T01:21:53;20.30;99.90
46890;DHT22;32625;51.080;16.970;2023-07-13T01:24:20;20.20;99.90
46890;DHT22;32625;51.080;16.970;2023-07-13T01:26:48;20.20;99.90
46890;DHT22;32625;51.080;16.970;2023-07-13T01:29:16;20.20;99.90
46890;DHT22;32625;51.080;16.970;2023-07-13T01:31:43;20.20;99.90
46890;DHT22;32625;51.080;16.970;2023-07-13T01:34:11;20.10;99.90
46890;DHT22;32625;51.080;16.970;2023-07-13T01:36:38;20.10;99.90
46890;DHT22;32625;51.080;16.970;2023-07-13T01:39:06;20.00;99.90
46890;DHT22;32625;51.080;16.970;2023-07-13T01:41:34;20.00;99.90
46890;DHT22;32625;51.080;16.970;2023-07-13T01:44:01;19.90;99.90
46890;DHT22;32625;51.080;16.970;2023-07-13T01:46:30;19.90;99.90
46890;DHT22;32625;51.080;16.970;2023-07-13T01:48:57;19.90;99.90
46890;DHT22;32625;51.080;16.970;2023-07-13T01:51:24;19.90;99.90
46890;DHT22;32625;51.080;16.970;2023-07-13T01:53:51;19.80;99.90
46890;DHT22;32625;51.080;16.970;2023-07-13T01:56:19;19.70;99.90
46890;DHT22;32625;51.080;16.970;2023-07-13T01:58:47;19.70;99.90
46890;DHT22;32625;51.080;16.970;2023-07-13T02:01:14;19.60;99.90
46890;DHT22;32625;51.080;16.970;2023-07-13T02:03:41;19.60;99.90
46890;DHT22;32625;51.080;16.970;2023-07-13T02:06:09;19.60;99.90
46890;DHT22;32625;51.080;16.970;2023-07-13T02:08:37;19.50;99.90
46890;DHT22;32625;51.080;16.970;2023-07-13T02:11:04;19.50;99.90
46890;DHT22;32625;51.080;16.970;2023-07-13T02:13:31;19.50;99.90
46890;DHT22;32625;51.080;16.970;2023-07-13T02:15:58;19.50;99.90
46890;DHT22;32625;51.080;16.970;2023-07-13T02:18:26;19.50;99.90
46890;DHT22;32625;51.080;16.970;2023-07-13T02:20:53;19.40;99.90
46890;DHT22;32625;51.080;16.970;2023-07-13T02:23:20;19.40;99.90
46890;DHT22;32625;51.080;16.970;2023-07-13T02:25:47;19.40;99.90
46890;DHT22;32625;51.080;16.970;2023-07-13T02:28:15;19.40;99.90
46890;DHT22;32625;51.080;16.970;2023-07-13T02:30:42;19.40;99.90
46890;DHT22;32625;51.080;16.970;2023-07-13T02:33:10;19.40;99.90
46890;DHT22;32625;51.080;16.970;2023-07-13T02:35:37;19.30;99.90
46890;DHT22;32625;51.080;16.970;2023-07-13T02:38:04;19.30;99.90
46890;DHT22;32625;51.080;16.970;2023-07-13T02:40:31;19.30;99.90
46890;DHT22;32625;51.080;16.970;2023-07-13T02:43:00;19.20;99.90
46890;DHT22;32625;51.080;16.970;2023-07-13T02:45:30;19.20;99.90
46890;DHT22;32625;51.080;16.970;2023-07-13T02:47:58;19.20;99.90
46890;DHT22;32625;51.080;16.970;2023-07-13T02:50:25;19.20;99.90
46890;DHT22;32625;51.080;16.970;2023-07-13T02:52:52;19.20;99.90
46890;DHT22;32625;51.080;16.970;2023-07-13T02:55:20;19.20;99.90
46890;DHT22;32625;51.080;16.970;2023-07-13T02:57:47;19.20;99.90
46890;DHT22;32625;51.080;16.970;2023-07-13T03:00:14;19.20;99.90
46890;DHT22;32625;51.080;16.970;2023-07-13T03:02:43;19.30;99.90
46890;DHT22;32625;51.080;16.970;2023-07-13T03:05:10;19.30;99.90
46890;DHT22;32625;51.080;16.970;2023-07-13T03:07:41;19.30;99.90
46890;DHT22;32625;51.080;16.970;2023-07-13T03:10:09;19.30;99.90
46890;DHT22;32625;51.080;16.970;2023-07-13T03:12:43;19.30;99.90
46890;DHT22;32625;51.080;16.970;2023-07-13T03:15:18;19.40;99.90
46890;DHT22;32625;51.080;16.970;2023-07-13T03:17:47;19.40;99.90
46890;DHT22;32625;51.080;16.970;2023-07-13T03:20:15;19.40;99.90
46890;DHT22;32625;51.080;16.970;2023-07-13T03:22:42;19.40;99.90
46890;DHT22;32625;51.080;16.970;2023-07-13T03:25:10;19.30;99.90
46890;DHT22;32625;51.080;16.970;2023-07-13T03:27:38;19.40;99.90
46890;DHT22;32625;51.080;16.970;2023-07-13T03:30:08;19.40;99.90
46890;DHT22;32625;51.080;16.970;2023-07-13T03:32:35;19.40;99.90
46890;DHT22;32625;51.080;16.970;2023-07-13T03:35:03;19.40;99.90
46890;DHT22;32625;51.080;16.970;2023-07-13T03:37:31;19.40;99.90
46890;DHT22;32625;51.080;16.970;2023-07-13T03:39:59;19.40;99.90
46890;DHT22;32625;51.080;16.970;2023-07-13T03:42:26;19.50;99.90
46890;DHT22;32625;51.080;16.970;2023-07-13T03:44:54;19.50;99.90
46890;DHT22;32625;51.080;16.970;2023-07-13T03:47:22;19.50;99.90
46890;DHT22;32625;51.080;16.970;2023-07-13T03:49:49;19.50;99.90
46890;DHT22;32625;51.080;16.970;2023-07-13T03:52:16;19.50;99.90
46890;DHT22;32625;51.080;16.970;2023-07-13T03:54:43;19.60;99.90
46890;DHT22;32625;51.080;16.970;2023-07-13T03:57:10;19.60;99.90
46890;DHT22;32625;51.080;16.970;2023-07-13T03:59:38;19.60;99.90
46890;DHT22;32625;51.080;16.970;2023-07-13T04:02:08;19.70;99.90
46890;DHT22;32625;51.080;16.970;2023-07-13T04:04:35;19.70;99.90
46890;DHT22;32625;51.080;16.970;2023-07-13T04:07:03;19.70;99.90
46890;DHT22;32625;51.080;16.970;2023-07-13T04:09:30;19.70;99.90
46890;DHT22;32625;51.080;16.970;2023-07-13T04:11:57;19.70;99.90
46890;DHT22;32625;51.080;16.970;2023-07-13T04:14:27;19.70;99.90
46890;DHT22;32625;51.080;16.970;2023-07-13T04:16:54;19.70;99.90
46890;DHT22;32625;51.080;16.970;2023-07-13T04:19:21;19.80;99.90
46890;DHT22;32625;51.080;16.970;2023-07-13T04:21:48;19.70;99.90
46890;DHT22;32625;51.080;16.970;2023-07-13T04:24:15;19.70;99.90
46890;DHT22;32625;51.080;16.970;2023-07-13T04:26:43;19.60;99.90
46890;DHT22;32625;51.080;16.970;2023-07-13T04:29:10;19.40;99.90
46890;DHT22;32625;51.080;16.970;2023-07-13T04:31:37;19.20;99.90
46890;DHT22;32625;51.080;16.970;2023-07-13T04:34:05;19.10;99.90
46890;DHT22;32625;51.080;16.970;2023-07-13T04:36:33;18.80;99.90
46890;DHT22;32625;51.080;16.970;2023-07-13T04:39:00;18.60;99.90
46890;DHT22;32625;51.080;16.970;2023-07-13T04:41:27;18.40;99.90
46890;DHT22;32625;51.080;16.970;2023-07-13T04:43:55;18.20;99.90
46890;DHT22;32625;51.080;16.970;2023-07-13T04:46:23;18.00;99.90
46890;DHT22;32625;51.080;16.970;2023-07-13T04:56:27;17.60;99.90
46890;DHT22;32625;51.080;16.970;2023-07-13T04:59:08;17.60;99.90
46890;DHT22;32625;51.080;16.970;2023-07-13T05:01:35;17.60;99.90
46890;DHT22;32625;51.080;16.970;2023-07-13T05:04:02;17.60;99.90
46890;DHT22;32625;51.080;16.970;2023-07-13T05:11:04;17.60;99.90
46890;DHT22;32625;51.080;16.970;2023-07-13T05:13:33;17.50;99.90
46890;DHT22;32625;51.080;16.970;2023-07-13T05:16:02;17.50;99.90
46890;DHT22;32625;51.080;16.970;2023-07-13T05:18:31;17.50;99.90
46890;DHT22;32625;51.080;16.970;2023-07-13T05:21:09;17.50;99.90
46890;DHT22;32625;51.080;16.970;2023-07-13T05:23:38;17.50;99.90
46890;DHT22;32625;51.080;16.970;2023-07-13T05:26:05;17.60;99.90
46890;DHT22;32625;51.080;16.970;2023-07-13T05:28:36;17.60;99.90
46890;DHT22;32625;51.080;16.970;2023-07-13T05:31:04;17.50;99.90
46890;DHT22;32625;51.080;16.970;2023-07-13T05:33:31;17.40;99.90
46890;DHT22;32625;51.080;16.970;2023-07-13T05:35:58;17.40;99.90
46890;DHT22;32625;51.080;16.970;2023-07-13T05:38:28;17.40;99.90
46890;DHT22;32625;51.080;16.970;2023-07-13T05:40:56;17.40;99.90
46890;DHT22;32625;51.080;16.970;2023-07-13T05:43:24;17.40;99.90
46890;DHT22;32625;51.080;16.970;2023-07-13T05:45:53;17.30;99.90
46890;DHT22;32625;51.080;16.970;2023-07-13T05:48:20;17.40;99.90
46890;DHT22;32625;51.080;16.970;2023-07-13T05:50:47;17.40;99.90
46890;DHT22;32625;51.080;16.970;2023-07-13T05:53:15;17.50;99.90
46890;DHT22;32625;51.080;16.970;2023-07-13T05:55:46;17.50;99.90
46890;DHT22;32625;51.080;16.970;2023-07-13T05:58:20;17.60;99.90
46890;DHT22;32625;51.080;16.970;2023-07-13T06:00:48;17.50;99.90
46890;DHT22;32625;51.080;16.970;2023-07-13T06:03:15;17.50;99.90
46890;DHT22;32625;51.080;16.970;2023-07-13T06:05:42;17.50;99.90
46890;DHT22;32625;51.080;16.970;2023-07-13T06:08:10;17.50;99.90
46890;DHT22;32625;51.080;16.970;2023-07-13T06:10:37;17.50;99.90
46890;DHT22;32625;51.080;16.970;2023-07-13T06:13:04;17.60;99.90
46890;DHT22;32625;51.080;16.970;2023-07-13T06:15:32;17.60;99.90
46890;DHT22;32625;51.080;16.970;2023-07-13T06:18:00;17.70;99.90
46890;DHT22;32625;51.080;16.970;2023-07-13T06:20:29;17.80;99.90
46890;DHT22;32625;51.080;16.970;2023-07-13T06:22:56;17.90;99.90
46890;DHT22;32625;51.080;16.970;2023-07-13T06:25:24;18.00;99.90
46890;DHT22;32625;51.080;16.970;2023-07-13T06:27:51;18.00;99.90
46890;DHT22;32625;51.080;16.970;2023-07-13T06:30:18;18.10;99.90
46890;DHT22;32625;51.080;16.970;2023-07-13T06:32:45;18.20;99.90
46890;DHT22;32625;51.080;16.970;2023-07-13T06:35:12;18.20;99.90
46890;DHT22;32625;51.080;16.970;2023-07-13T06:37:40;18.20;99.90
46890;DHT22;32625;51.080;16.970;2023-07-13T06:40:08;18.20;99.90
46890;DHT22;32625;51.080;16.970;2023-07-13T06:42:35;18.20;99.90
46890;DHT22;32625;51.080;16.970;2023-07-13T06:45:02;18.10;99.90
46890;DHT22;32625;51.080;16.970;2023-07-13T06:47:29;18.10;99.90
46890;DHT22;32625;51.080;16.970;2023-07-13T06:50:00;18.00;99.90
46890;DHT22;32625;51.080;16.970;2023-07-13T06:52:27;18.00;99.90
46890;DHT22;32625;51.080;16.970;2023-07-13T06:54:54;18.00;99.90
46890;DHT22;32625;51.080;16.970;2023-07-13T06:57:22;17.90;99.90
46890;DHT22;32625;51.080;16.970;2023-07-13T06:59:49;17.90;99.90
46890;DHT22;32625;51.080;16.970;2023-07-13T07:02:16;17.80;99.90
46890;DHT22;32625;51.080;16.970;2023-07-13T07:04:43;17.80;99.90
46890;DHT22;32625;51.080;16.970;2023-07-13T07:07:10;17.70;99.90
46890;DHT22;32625;51.080;16.970;2023-07-13T07:09:37;17.70;99.90
46890;DHT22;32625;51.080;16.970;2023-07-13T07:12:05;17.70;99.90
46890;DHT22;32625;51.080;16.970;2023-07-13T07:14:32;17.70;99.90
46890;DHT22;32625;51.080;16.970;2023-07-13T07:17:01;17.70;99.90
46890;DHT22;32625;51.080;16.970;2023-07-13T07:19:30;17.60;99.90
46890;DHT22;32625;51.080;16.970;2023-07-13T07:21:57;17.60;99.90
46890;DHT22;32625;51.080;16.970;2023-07-13T07:24:24;17.70;99.90
46890;DHT22;32625;51.080;16.970;2023-07-13T07:26:51;17.70;99.90
46890;DHT22;32625;51.080;16.970;2023-07-13T07:29:21;17.70;99.90
46890;DHT22;32625;51.080;16.970;2023-07-13T07:31:52;17.70;99.90
46890;DHT22;32625;51.080;16.970;2023-07-13T07:34:22;17.80;99.90
46890;DHT22;32625;51.080;16.970;2023-07-13T07:36:49;17.70;99.90
46890;DHT22;32625;51.080;16.970;2023-07-13T07:39:19;17.80;99.90
46890;DHT22;32625;51.080;16.970;2023-07-13T07:41:47;17.80;99.90
46890;DHT22;32625;51.080;16.970;2023-07-13T07:44:17;17.80;99.90
46890;DHT22;32625;51.080;16.970;2023-07-13T07:46:44;17.80;99.90
46890;DHT22;32625;51.080;16.970;2023-07-13T07:49:12;17.80;99.90
46890;DHT22;32625;51.080;16.970;2023-07-13T07:51:39;17.90;99.90
46890;DHT22;32625;51.080;16.970;2023-07-13T07:54:06;17.90;99.90
46890;DHT22;32625;51.080;16.970;2023-07-13T07:56:33;18.00;99.90
46890;DHT22;32625;51.080;16.970;2023-07-13T07:59:03;18.10;99.90
46890;DHT22;32625;51.080;16.970;2023-07-13T08:01:33;18.20;99.90
46890;DHT22;32625;51.080;16.970;2023-07-13T08:04:03;18.30;99.90
46890;DHT22;32625;51.080;16.970;2023-07-13T08:06:34;18.40;99.90
46890;DHT22;32625;51.080;16.970;2023-07-13T08:09:04;18.50;99.90
46890;DHT22;32625;51.080;16.970;2023-07-13T08:11:31;18.60;99.90
46890;DHT22;32625;51.080;16.970;2023-07-13T08:14:01;18.70;99.90
46890;DHT22;32625;51.080;16.970;2023-07-13T08:16:28;18.70;99.90
46890;DHT22;32625;51.080;16.970;2023-07-13T08:18:55;18.70;99.90
46890;DHT22;32625;51.080;16.970;2023-07-13T08:21:23;18.70;99.90
46890;DHT22;32625;51.080;16.970;2023-07-13T08:23:50;18.60;99.90
46890;DHT22;32625;51.080;16.970;2023-07-13T08:26:17;18.60;99.90
46890;DHT22;32625;51.080;16.970;2023-07-13T08:28:44;18.70;99.90
46890;DHT22;32625;51.080;16.970;2023-07-13T08:31:11;18.70;99.90
46890;DHT22;32625;51.080;16.970;2023-07-13T08:33:39;18.80;99.90
46890;DHT22;32625;51.080;16.970;2023-07-13T08:36:07;18.80;99.90
46890;DHT22;32625;51.080;16.970;2023-07-13T08:38:35;18.80;99.90
46890;DHT22;32625;51.080;16.970;2023-07-13T08:41:13;18.70;99.90
46890;DHT22;32625;51.080;16.970;2023-07-13T08:43:42;18.70;99.90
46890;DHT22;32625;51.080;16.970;2023-07-13T08:46:21;18.80;99.90
46890;DHT22;32625;51.080;16.970;2023-07-13T08:49:19;18.80;99.90
46890;DHT22;32625;51.080;16.970;2023-07-13T08:52:06;18.90;99.90
46890;DHT22;32625;51.080;16.970;2023-07-13T08:54:40;18.80;99.90
46890;DHT22;32625;51.080;16.970;2023-07-13T08:57:21;18.80;99.90
46890;DHT22;32625;51.080;16.970;2023-07-13T08:59:51;18.80;99.90
46890;DHT22;32625;51.080;16.970;2023-07-13T09:05:36;18.90;99.90
46890;DHT22;32625;51.080;16.970;2023-07-13T09:10:46;19.10;99.90
46890;DHT22;32625;51.080;16.970;2023-07-13T09:16:04;19.50;99.90
46890;DHT22;32625;51.080;16.970;2023-07-13T09:18:40;19.50;99.90
46890;DHT22;32625;51.080;16.970;2023-07-13T09:21:10;19.70;99.90
46890;DHT22;32625;51.080;16.970;2023-07-13T09:23:40;19.70;99.90
46890;DHT22;32625;51.080;16.970;2023-07-13T09:26:19;19.60;99.90
46890;DHT22;32625;51.080;16.970;2023-07-13T09:29:15;19.60;99.90
46890;DHT22;32625;51.080;16.970;2023-07-13T09:31:47;19.50;99.90
46890;DHT22;32625;51.080;16.970;2023-07-13T09:34:16;19.60;99.90
46890;DHT22;32625;51.080;16.970;2023-07-13T09:36:44;19.70;99.90
46890;DHT22;32625;51.080;16.970;2023-07-13T09:39:31;19.70;99.90
46890;DHT22;32625;51.080;16.970;2023-07-13T09:47:20;19.70;99.90
46890;DHT22;32625;51.080;16.970;2023-07-13T09:50:16;19.80;99.90
46890;DHT22;32625;51.080;16.970;2023-07-13T09:52:47;19.90;99.90
46890;DHT22;32625;51.080;16.970;2023-07-13T09:55:35;20.00;99.90
46890;DHT22;32625;51.080;16.970;2023-07-13T09:58:22;20.10;99.90
46890;DHT22;32625;51.080;16.970;2023-07-13T10:01:03;20.20;99.90
46890;DHT22;32625;51.080;16.970;2023-07-13T10:03:36;20.30;99.90
46890;DHT22;32625;51.080;16.970;2023-07-13T10:06:21;20.30;99.90
46890;DHT22;32625;51.080;16.970;2023-07-13T10:08:56;20.40;99.90
46890;DHT22;32625;51.080;16.970;2023-07-13T10:11:27;20.40;99.90
46890;DHT22;32625;51.080;16.970;2023-07-13T10:13:58;20.60;99.90
46890;DHT22;32625;51.080;16.970;2023-07-13T10:16:32;20.70;99.90
46890;DHT22;32625;51.080;16.970;2023-07-13T10:19:10;20.90;99.90
46890;DHT22;32625;51.080;16.970;2023-07-13T10:21:53;20.90;99.90
46890;DHT22;32625;51.080;16.970;2023-07-13T10:24:24;20.90;99.90
46890;DHT22;32625;51.080;16.970;2023-07-13T10:27:17;21.00;99.90
46890;DHT22;32625;51.080;16.970;2023-07-13T10:29:52;21.10;99.90
46890;DHT22;32625;51.080;16.970;2023-07-13T10:32:23;21.10;99.90
46890;DHT22;32625;51.080;16.970;2023-07-13T10:34:52;21.10;99.90
46890;DHT22;32625;51.080;16.970;2023-07-13T10:37:24;21.10;99.90
46890;DHT22;32625;51.080;16.970;2023-07-13T10:39:55;21.10;99.90
46890;DHT22;32625;51.080;16.970;2023-07-13T10:42:30;21.10;99.90
46890;DHT22;32625;51.080;16.970;2023-07-13T10:44:59;21.20;99.90
46890;DHT22;32625;51.080;16.970;2023-07-13T10:47:26;21.20;99.90
46890;DHT22;32625;51.080;16.970;2023-07-13T10:49:56;21.20;99.90
46890;DHT22;32625;51.080;16.970;2023-07-13T10:55:37;21.70;99.90
46890;DHT22;32625;51.080;16.970;2023-07-13T10:58:14;21.80;99.90
46890;DHT22;32625;51.080;16.970;2023-07-13T11:03:33;21.80;99.90
46890;DHT22;32625;51.080;16.970;2023-07-13T11:06:12;21.80;99.90
46890;DHT22;32625;51.080;16.970;2023-07-13T11:14:01;21.90;99.90
46890;DHT22;32625;51.080;16.970;2023-07-13T11:16:43;21.80;99.90
46890;DHT22;32625;51.080;16.970;2023-07-13T11:22:01;21.80;99.90
46890;DHT22;32625;51.080;16.970;2023-07-13T11:24:57;21.80;99.90
46890;DHT22;32625;51.080;16.970;2023-07-13T11:27:39;21.90;99.90
46890;DHT22;32625;51.080;16.970;2023-07-13T11:38:37;22.10;99.90
46890;DHT22;32625;51.080;16.970;2023-07-13T11:43:34;22.20;99.90
46890;DHT22;32625;51.080;16.970;2023-07-13T11:46:22;22.20;99.90
46890;DHT22;32625;51.080;16.970;2023-07-13T11:48:51;22.30;99.90
46890;DHT22;32625;51.080;16.970;2023-07-13T11:53:53;22.30;99.90
46890;DHT22;32625;51.080;16.970;2023-07-13T11:56:24;22.30;99.90
46890;DHT22;32625;51.080;16.970;2023-07-13T11:58:54;22.20;99.90
46890;DHT22;32625;51.080;16.970;2023-07-13T12:01:27;22.20;99.90
46890;DHT22;32625;51.080;16.970;2023-07-13T12:04:01;22.20;99.90
46890;DHT22;32625;51.080;16.970;2023-07-13T12:06:35;22.30;99.90
46890;DHT22;32625;51.080;16.970;2023-07-13T12:09:12;22.30;99.90
46890;DHT22;32625;51.080;16.970;2023-07-13T12:11:47;22.40;99.90
46890;DHT22;32625;51.080;16.970;2023-07-13T12:14:18;22.60;99.90
46890;DHT22;32625;51.080;16.970;2023-07-13T12:16:46;22.80;99.90
46890;DHT22;32625;51.080;16.970;2023-07-13T12:19:21;22.80;99.90
46890;DHT22;32625;51.080;16.970;2023-07-13T12:21:52;22.70;99.90
46890;DHT22;32625;51.080;16.970;2023-07-13T12:24:21;22.80;99.90
46890;DHT22;32625;51.080;16.970;2023-07-13T12:27:00;22.90;99.40
46890;DHT22;32625;51.080;16.970;2023-07-13T12:29:28;23.10;97.80
46890;DHT22;32625;51.080;16.970;2023-07-13T12:31:55;23.30;97.30
46890;DHT22;32625;51.080;16.970;2023-07-13T12:34:25;23.30;96.30
46890;DHT22;32625;51.080;16.970;2023-07-13T12:37:03;23.40;96.80
46890;DHT22;32625;51.080;16.970;2023-07-13T12:39:36;23.50;97.70
46890;DHT22;32625;51.080;16.970;2023-07-13T12:44:57;23.60;95.40
46890;DHT22;32625;51.080;16.970;2023-07-13T12:47:25;23.60;96.10
46890;DHT22;32625;51.080;16.970;2023-07-13T12:49:55;23.70;93.80
46890;DHT22;32625;51.080;16.970;2023-07-13T12:52:28;23.70;93.30
46890;DHT22;32625;51.080;16.970;2023-07-13T12:55:11;23.60;94.20
46890;DHT22;32625;51.080;16.970;2023-07-13T12:57:53;23.60;93.50
46890;DHT22;32625;51.080;16.970;2023-07-13T13:00:37;23.70;94.00
46890;DHT22;32625;51.080;16.970;2023-07-13T13:03:13;23.70;94.40
46890;DHT22;32625;51.080;16.970;2023-07-13T13:06:00;23.60;96.00
46890;DHT22;32625;51.080;16.970;2023-07-13T13:08:34;23.60;94.70
46890;DHT22;32625;51.080;16.970;2023-07-13T13:11:02;23.60;91.60
46890;DHT22;32625;51.080;16.970;2023-07-13T13:13:30;23.60;90.90
46890;DHT22;32625;51.080;16.970;2023-07-13T13:16:02;23.50;92.30
46890;DHT22;32625;51.080;16.970;2023-07-13T13:18:33;23.70;91.80
46890;DHT22;32625;51.080;16.970;2023-07-13T13:21:00;23.80;92.40
46890;DHT22;32625;51.080;16.970;2023-07-13T13:23:27;23.90;92.70
46890;DHT22;32625;51.080;16.970;2023-07-13T13:25:55;23.80;93.80
46890;DHT22;32625;51.080;16.970;2023-07-13T13:28:22;23.70;93.40
46890;DHT22;32625;51.080;16.970;2023-07-13T13:30:51;23.70;93.20
46890;DHT22;32625;51.080;16.970;2023-07-13T13:33:20;23.80;93.70
46890;DHT22;32625;51.080;16.970;2023-07-13T13:35:49;23.90;95.10
46890;DHT22;32625;51.080;16.970;2023-07-13T13:38:20;23.90;88.60
46890;DHT22;32625;51.080;16.970;2023-07-13T13:40:48;23.90;90.80
46890;DHT22;32625;51.080;16.970;2023-07-13T13:43:21;24.00;90.80
46890;DHT22;32625;51.080;16.970;2023-07-13T13:45:48;24.10;88.60
46890;DHT22;32625;51.080;16.970;2023-07-13T13:48:20;24.30;88.60
46890;DHT22;32625;51.080;16.970;2023-07-13T13:50:49;24.60;86.20
46890;DHT22;32625;51.080;16.970;2023-07-13T13:53:16;24.60;84.70
46890;DHT22;32625;51.080;16.970;2023-07-13T13:55:43;24.60;83.00
46890;DHT22;32625;51.080;16.970;2023-07-13T13:58:10;24.70;86.20
46890;DHT22;32625;51.080;16.970;2023-07-13T14:00:38;24.70;83.30
46890;DHT22;32625;51.080;16.970;2023-07-13T14:03:18;24.80;80.20
46890;DHT22;32625;51.080;16.970;2023-07-13T14:05:46;24.80;79.20
46890;DHT22;32625;51.080;16.970;2023-07-13T14:08:19;24.70;85.40
46890;DHT22;32625;51.080;16.970;2023-07-13T14:10:48;24.60;82.50
46890;DHT22;32625;51.080;16.970;2023-07-13T14:13:37;24.70;80.50
46890;DHT22;32625;51.080;16.970;2023-07-13T14:16:18;24.60;78.80
46890;DHT22;32625;51.080;16.970;2023-07-13T14:18:46;24.60;73.50
46890;DHT22;32625;51.080;16.970;2023-07-13T14:21:19;24.70;78.30
46890;DHT22;32625;51.080;16.970;2023-07-13T14:23:47;24.80;72.50
46890;DHT22;32625;51.080;16.970;2023-07-13T14:26:18;25.00;67.60
46890;DHT22;32625;51.080;16.970;2023-07-13T14:28:49;25.00;70.00
46890;DHT22;32625;51.080;16.970;2023-07-13T14:31:17;25.10;68.90
46890;DHT22;32625;51.080;16.970;2023-07-13T14:33:45;25.10;67.80
46890;DHT22;32625;51.080;16.970;2023-07-13T14:36:34;25.00;66.20
46890;DHT22;32625;51.080;16.970;2023-07-13T14:39:17;25.00;68.00
46890;DHT22;32625;51.080;16.970;2023-07-13T14:41:45;25.00;68.20
46890;DHT22;32625;51.080;16.970;2023-07-13T14:44:17;24.80;66.90
46890;DHT22;32625;51.080;16.970;2023-07-13T14:46:46;24.70;67.70
46890;DHT22;32625;51.080;16.970;2023-07-13T14:51:54;25.00;68.30
46890;DHT22;32625;51.080;16.970;2023-07-13T14:54:21;25.10;73.60
46890;DHT22;32625;51.080;16.970;2023-07-13T14:56:48;24.90;72.90
46890;DHT22;32625;51.080;16.970;2023-07-13T14:59:15;24.80;73.00
46890;DHT22;32625;51.080;16.970;2023-07-13T15:01:43;25.00;67.30
46890;DHT22;32625;51.080;16.970;2023-07-13T15:04:11;25.20;67.10
46890;DHT22;32625;51.080;16.970;2023-07-13T15:07:01;25.30;65.50
46890;DHT22;32625;51.080;16.970;2023-07-13T15:09:29;25.20;64.50
46890;DHT22;32625;51.080;16.970;2023-07-13T15:11:57;25.10;64.40
46890;DHT22;32625;51.080;16.970;2023-07-13T15:14:25;25.00;65.50
46890;DHT22;32625;51.080;16.970;2023-07-13T15:16:55;25.00;66.70
46890;DHT22;32625;51.080;16.970;2023-07-13T15:19:23;24.80;64.90
46890;DHT22;32625;51.080;16.970;2023-07-13T15:21:51;24.80;68.70
46890;DHT22;32625;51.080;16.970;2023-07-13T15:24:19;24.80;72.90
46890;DHT22;32625;51.080;16.970;2023-07-13T15:26:47;24.80;73.90
46890;DHT22;32625;51.080;16.970;2023-07-13T15:29:17;24.80;71.10
46890;DHT22;32625;51.080;16.970;2023-07-13T15:31:44;24.90;70.10
46890;DHT22;32625;51.080;16.970;2023-07-13T15:34:18;24.80;70.20
46890;DHT22;32625;51.080;16.970;2023-07-13T15:36:47;24.80;71.10
46890;DHT22;32625;51.080;16.970;2023-07-13T15:39:16;24.70;70.60
46890;DHT22;32625;51.080;16.970;2023-07-13T15:41:45;24.60;72.20
46890;DHT22;32625;51.080;16.970;2023-07-13T15:44:29;24.40;72.70
46890;DHT22;32625;51.080;16.970;2023-07-13T15:46:57;24.40;70.50
46890;DHT22;32625;51.080;16.970;2023-07-13T15:49:27;24.30;71.50
46890;DHT22;32625;51.080;16.970;2023-07-13T15:51:55;24.20;72.90
46890;DHT22;32625;51.080;16.970;2023-07-13T15:54:23;24.20;69.80
46890;DHT22;32625;51.080;16.970;2023-07-13T15:56:54;24.20;69.70
46890;DHT22;32625;51.080;16.970;2023-07-13T16:02:18;24.20;71.40
46890;DHT22;32625;51.080;16.970;2023-07-13T16:04:46;24.20;69.00
46890;DHT22;32625;51.080;16.970;2023-07-13T16:07:15;24.10;72.20
46890;DHT22;32625;51.080;16.970;2023-07-13T16:09:48;24.10;73.20
46890;DHT22;32625;51.080;16.970;2023-07-13T16:12:17;24.00;73.10
46890;DHT22;32625;51.080;16.970;2023-07-13T16:14:44;24.00;70.80
46890;DHT22;32625;51.080;16.970;2023-07-13T16:17:12;24.10;68.60
46890;DHT22;32625;51.080;16.970;2023-07-13T16:19:41;24.00;68.40
46890;DHT22;32625;51.080;16.970;2023-07-13T16:22:17;23.90;67.60
46890;DHT22;32625;51.080;16.970;2023-07-13T16:24:45;23.90;73.90
46890;DHT22;32625;51.080;16.970;2023-07-13T16:27:18;23.80;73.90
46890;DHT22;32625;51.080;16.970;2023-07-13T16:29:45;23.90;74.20
46890;DHT22;32625;51.080;16.970;2023-07-13T16:32:13;23.80;76.30
46890;DHT22;32625;51.080;16.970;2023-07-13T16:34:43;23.80;78.40
46890;DHT22;32625;51.080;16.970;2023-07-13T16:37:15;23.70;81.60